Terminal Aerodrome Forecast
Issued by NWS

Home | Current Version | Previous Version | Text Only | Print | Product List | Glossary On
Versions: 1 2 3 4 5 6 7 8 9 10 11 12 13 14 15 16
000
FTUS46 KPDT 210500
TAFRDM
TAF
KRDM 210520Z 2106/2206 VRB06KT P6SM SCT050 BKN100
     FM210900 VRB05KT P6SM SCT060
     FM211400 17007KT P6SM FEW060
     FM212000 24008G15KT P6SM FEW060 OVC200
     FM220100 VRB05KT P6SM SCT070 OVC120=

USA.gov is the U.S. government's official web portal to all federal, state and local government web resources and services.